Time;durP1;ratioP1;P1;durP2;ratioP2;P2;SDS_P1;SDS_P2;PMS_P1;PMS_P2;Temp;Humidity;BMP_temperature;BMP_pressure;BME280_temperature;BME280_humidity;BME280_pressure;Samples;Min_cycle;Max_cycle;Signal;HPM_P1;HPM_P2
2022/02/23 00:02:12;;;;;;;;;;;22.40;32.60;;;;;;5093405;28;20446;-71
2022/02/23 00:04:39;;;;;;;;;;;22.40;32.60;;;;;;5095104;28;20123;-71
2022/02/23 00:07:06;;;;;;;;;;;22.40;32.60;;;;;;5093800;28;19974;-71
2022/02/23 00:09:33;;;;;;;;;;;22.40;32.60;;;;;;5094453;28;19924;-70
2022/02/23 00:12:00;;;;;;;;;;;22.40;32.60;;;;;;5094066;28;19924;-70
2022/02/23 00:14:27;;;;;;;;;;;22.40;32.60;;;;;;5094355;28;19971;-70
2022/02/23 00:16:54;;;;;;;;;;;22.40;32.60;;;;;;5093157;28;20014;-69
2022/02/23 00:19:52;;;;;;;;;;;22.40;32.60;;;;;;5093862;28;21309;-70
2022/02/23 00:22:19;;;;;;;;;;;22.40;32.60;;;;;;5093154;28;20010;-69
2022/02/23 00:24:46;;;;;;;;;;;22.40;32.60;;;;;;5095214;28;19981;-69
2022/02/23 00:27:13;;;;;;;;;;;22.40;32.60;;;;;;5092767;28;19971;-70
2022/02/23 00:29:40;;;;;;;;;;;22.40;32.60;;;;;;5095638;28;19977;-69
2022/02/23 00:32:08;;;;;;;;;;;22.40;32.60;;;;;;5093275;28;20054;-70
2022/02/23 00:34:35;;;;;;;;;;;22.40;32.60;;;;;;5094833;28;19963;-70
2022/02/23 00:37:02;;;;;;;;;;;22.30;32.60;;;;;;5093718;28;19983;-69
2022/02/23 00:39:29;;;;;;;;;;;22.40;32.70;;;;;;5094450;28;20018;-69
2022/02/23 00:41:55;;;;;;;;;;;22.30;32.60;;;;;;5092036;28;20215;-70
2022/02/23 00:47:27;;;;;;;;;;;22.30;32.60;;;;;;5090229;28;19924;-69
2022/02/23 00:49:54;;;;;;;;;;;22.30;32.70;;;;;;5091858;28;19967;-70
2022/02/23 00:52:21;;;;;;;;;;;22.30;32.60;;;;;;5090053;28;20026;-69
2022/02/23 00:54:50;;;;;;;;;;;22.30;32.70;;;;;;5092053;28;19924;-69
2022/02/23 00:57:17;;;;;;;;;;;22.30;32.60;;;;;;5089255;28;20435;-69
2022/02/23 00:59:45;;;;;;;;;;;22.30;32.70;;;;;;5092053;28;20027;-69
2022/02/23 01:02:11;;;;;;;;;;;22.30;32.70;;;;;;5089821;28;19934;-71
2022/02/23 01:04:38;;;;;;;;;;;22.30;32.70;;;;;;5090917;28;20027;-69
2022/02/23 01:07:05;;;;;;;;;;;22.30;32.70;;;;;;5090194;28;19979;-69
2022/02/23 01:09:32;;;;;;;;;;;22.30;32.70;;;;;;5090854;28;19967;-69
2022/02/23 01:12:00;;;;;;;;;;;22.30;32.70;;;;;;5090009;28;19968;-69
2022/02/23 01:14:27;;;;;;;;;;;22.30;32.70;;;;;;5090821;28;19924;-69
2022/02/23 01:16:57;;;;;;;;;;;22.30;32.70;;;;;;5089965;28;19924;-69
2022/02/23 01:19:51;;;;;;;;;;;22.30;32.70;;;;;;5090357;28;20022;-69
2022/02/23 01:22:18;;;;;;;;;;;22.30;32.60;;;;;;5088982;28;20010;-69
2022/02/23 01:24:45;;;;;;;;;;;22.30;32.60;;;;;;5091074;28;20330;-69
2022/02/23 01:27:12;;;;;;;;;;;22.30;32.60;;;;;;5088940;28;19974;-69
2022/02/23 01:29:39;;;;;;;;;;;22.30;32.60;;;;;;5090826;28;19977;-69
2022/02/23 01:32:07;;;;;;;;;;;22.30;32.60;;;;;;5089037;28;19975;-69
2022/02/23 01:34:34;;;;;;;;;;;22.30;32.60;;;;;;5090525;28;19959;-69
2022/02/23 01:37:02;;;;;;;;;;;22.30;32.60;;;;;;5089331;28;19928;-69
2022/02/23 01:39:29;;;;;;;;;;;22.30;32.70;;;;;;5090340;28;20328;-69
2022/02/23 01:41:56;;;;;;;;;;;22.30;32.70;;;;;;5089696;28;19924;-69
2022/02/23 01:47:28;;;;;;;;;;;22.30;32.70;;;;;;5088900;28;19924;-69
2022/02/23 01:49:56;;;;;;;;;;;22.30;32.70;;;;;;5090876;28;19924;-69
2022/02/23 01:52:25;;;;;;;;;;;22.30;32.70;;;;;;5088677;28;19942;-69
2022/02/23 01:54:52;;;;;;;;;;;22.20;32.60;;;;;;5090282;28;19935;-69
2022/02/23 01:57:19;;;;;;;;;;;22.30;32.70;;;;;;5088490;28;19967;-69
2022/02/23 01:59:46;;;;;;;;;;;22.20;32.70;;;;;;5090904;28;20018;-69
2022/02/23 02:02:14;;;;;;;;;;;22.20;32.60;;;;;;5088572;28;20019;-69
2022/02/23 02:04:41;;;;;;;;;;;22.30;32.70;;;;;;5089749;28;20322;-69
2022/02/23 02:07:10;;;;;;;;;;;22.20;32.60;;;;;;5089038;28;19928;-69
2022/02/23 02:09:37;;;;;;;;;;;22.20;32.60;;;;;;5089456;28;20415;-69
2022/02/23 02:12:04;;;;;;;;;;;22.20;32.60;;;;;;5088671;28;20019;-68
2022/02/23 02:14:31;;;;;;;;;;;22.30;32.70;;;;;;5089873;28;19967;-69
2022/02/23 02:16:58;;;;;;;;;;;22.20;32.60;;;;;;5088493;28;19976;-69
2022/02/23 02:22:30;;;;;;;;;;;22.20;32.70;;;;;;5087948;28;19928;-69
2022/02/23 02:24:57;;;;;;;;;;;22.20;32.70;;;;;;5090314;28;20333;-69
2022/02/23 02:27:24;;;;;;;;;;;22.30;32.70;;;;;;5087969;28;20292;-69
2022/02/23 02:29:52;;;;;;;;;;;22.20;32.60;;;;;;5090507;28;19933;-69
2022/02/23 02:32:19;;;;;;;;;;;22.20;32.60;;;;;;5088070;28;19977;-69
2022/02/23 02:34:46;;;;;;;;;;;22.20;32.60;;;;;;5089114;28;20055;-69
2022/02/23 02:37:13;;;;;;;;;;;22.20;32.60;;;;;;5088026;28;20054;-69
2022/02/23 02:39:40;;;;;;;;;;;22.20;32.60;;;;;;5089460;28;20026;-68
2022/02/23 02:42:07;;;;;;;;;;;22.30;32.60;;;;;;5087792;28;19924;-69
2022/02/23 02:44:52;;;;;;;;;;;22.30;32.60;;;;;;5089308;28;20018;-69
2022/02/23 02:47:21;;;;;;;;;;;22.30;32.60;;;;;;5088040;28;19924;-68
2022/02/23 02:49:48;;;;;;;;;;;22.30;32.60;;;;;;5089625;28;19924;-68
2022/02/23 02:52:15;;;;;;;;;;;22.20;32.60;;;;;;5087099;28;19924;-68
2022/02/23 02:54:41;;;;;;;;;;;22.20;32.60;;;;;;5089674;28;19932;-69
2022/02/23 02:57:08;;;;;;;;;;;22.20;32.60;;;;;;5086796;28;20049;-68
2022/02/23 02:59:35;;;;;;;;;;;22.20;32.60;;;;;;5089043;28;19928;-68
2022/02/23 03:02:03;;;;;;;;;;;22.30;32.70;;;;;;5087931;28;19924;-69
2022/02/23 03:04:30;;;;;;;;;;;22.20;32.60;;;;;;5088660;28;20006;-69
2022/02/23 03:06:57;;;;;;;;;;;22.20;32.60;;;;;;5087569;28;19924;-68
2022/02/23 03:09:27;;;;;;;;;;;22.20;32.60;;;;;;5088829;28;19977;-69
2022/02/23 03:11:54;;;;;;;;;;;22.20;32.60;;;;;;5087764;28;19955;-68
2022/02/23 03:14:21;;;;;;;;;;;22.20;32.60;;;;;;5088471;28;20377;-69
2022/02/23 03:16:48;;;;;;;;;;;22.20;32.60;;;;;;5087781;28;20435;-68
2022/02/23 03:22:33;;;;;;;;;;;22.20;32.60;;;;;;5086593;28;19928;-68
2022/02/23 03:25:00;;;;;;;;;;;22.20;32.60;;;;;;5089097;28;19966;-69
2022/02/23 03:27:27;;;;;;;;;;;22.20;32.60;;;;;;5087211;28;19930;-69
2022/02/23 03:29:53;;;;;;;;;;;22.30;32.70;;;;;;5088922;28;19924;-69
2022/02/23 03:32:21;;;;;;;;;;;22.20;32.60;;;;;;5087309;28;19924;-69
2022/02/23 03:34:47;;;;;;;;;;;22.20;32.60;;;;;;5088819;28;20026;-69
2022/02/23 03:37:14;;;;;;;;;;;22.20;32.60;;;;;;5087335;28;20377;-69
2022/02/23 03:39:42;;;;;;;;;;;22.20;32.60;;;;;;5088619;28;19984;-69
2022/02/23 03:42:09;;;;;;;;;;;22.20;32.60;;;;;;5086703;28;20011;-69
2022/02/23 03:44:36;;;;;;;;;;;22.30;32.70;;;;;;5088733;28;19967;-68
2022/02/23 03:47:03;;;;;;;;;;;22.20;32.60;;;;;;5087187;28;20437;-69
2022/02/23 03:49:30;;;;;;;;;;;22.20;32.60;;;;;;5088736;28;19924;-69
2022/02/23 03:51:58;;;;;;;;;;;22.20;32.70;;;;;;5086828;28;19947;-68
2022/02/23 03:57:29;;;;;;;;;;;22.30;32.60;;;;;;5086990;28;19928;-69
2022/02/23 03:59:56;;;;;;;;;;;22.30;32.60;;;;;;5088635;28;20288;-68
2022/02/23 04:02:23;;;;;;;;;;;22.30;32.60;;;;;;5086777;28;20188;-69
2022/02/23 04:04:50;;;;;;;;;;;22.30;32.60;;;;;;5088243;28;19971;-68
2022/02/23 04:07:17;;;;;;;;;;;22.30;32.60;;;;;;5087260;28;19924;-68
2022/02/23 04:09:47;;;;;;;;;;;22.30;32.60;;;;;;5088710;28;19924;-68
2022/02/23 04:12:15;;;;;;;;;;;22.30;32.60;;;;;;5086567;28;20014;-69
2022/02/23 04:14:44;;;;;;;;;;;22.30;32.60;;;;;;5088397;28;19950;-68
2022/02/23 04:17:11;;;;;;;;;;;22.20;32.50;;;;;;5088080;28;20312;-68
2022/02/23 04:19:38;;;;;;;;;;;22.20;32.50;;;;;;5092591;28;20088;-68
2022/02/23 04:22:06;;;;;;;;;;;22.30;32.60;;;;;;5090140;28;19928;-68
2022/02/23 04:24:33;;;;;;;;;;;22.20;32.50;;;;;;5091949;28;19995;-68
2022/02/23 04:27:00;;;;;;;;;;;22.20;32.60;;;;;;5090599;28;19975;-68
2022/02/23 04:32:31;;;;;;;;;;;22.20;32.60;;;;;;5090001;28;19924;-68
2022/02/23 04:34:58;;;;;;;;;;;22.20;32.60;;;;;;5091713;28;19955;-68
2022/02/23 04:37:28;;;;;;;;;;;22.20;32.60;;;;;;5089053;28;20224;-68
2022/02/23 04:39:56;;;;;;;;;;;22.20;32.50;;;;;;5091831;28;19925;-68
2022/02/23 04:42:23;;;;;;;;;;;22.20;32.50;;;;;;5088985;28;20325;-68
2022/02/23 04:44:52;;;;;;;;;;;22.20;32.60;;;;;;5090902;28;19931;-67
2022/02/23 04:47:19;;;;;;;;;;;22.20;32.60;;;;;;5085584;28;19928;-68
2022/02/23 04:49:45;;;;;;;;;;;22.20;32.60;;;;;;5091576;28;19959;-68
2022/02/23 04:52:12;;;;;;;;;;;22.30;32.60;;;;;;5089799;28;19981;-68
2022/02/23 04:55:12;;;;;;;;;;;22.20;32.50;;;;;;5091631;28;20019;-68
2022/02/23 04:57:39;;;;;;;;;;;22.20;32.50;;;;;;5089556;28;20007;-69
2022/02/23 05:00:06;;;;;;;;;;;22.20;32.60;;;;;;5091714;28;20100;-68
2022/02/23 05:02:33;;;;;;;;;;;22.30;32.60;;;;;;5089960;28;19950;-68
2022/02/23 05:05:00;;;;;;;;;;;22.20;32.60;;;;;;5091401;28;19982;-68
2022/02/23 05:07:28;;;;;;;;;;;22.30;32.60;;;;;;5090184;28;20210;-68
2022/02/23 05:09:56;;;;;;;;;;;22.30;32.60;;;;;;5090755;28;20002;-68
2022/02/23 05:12:24;;;;;;;;;;;22.30;32.60;;;;;;5089466;28;19973;-68
2022/02/23 05:14:51;;;;;;;;;;;22.30;32.50;;;;;;5091249;28;20000;-68
2022/02/23 05:17:18;;;;;;;;;;;22.30;32.50;;;;;;5089112;28;20016;-68
2022/02/23 05:19:51;;;;;;;;;;;22.30;32.50;;;;;;5091543;28;20432;-68
2022/02/23 05:22:18;;;;;;;;;;;22.30;32.50;;;;;;5084287;28;19975;-68
2022/02/23 05:24:45;;;;;;;;;;;22.30;32.50;;;;;;5090711;28;19985;-68
2022/02/23 05:27:12;;;;;;;;;;;22.30;32.50;;;;;;5088476;28;20022;-68
2022/02/23 05:29:39;;;;;;;;;;;22.30;32.50;;;;;;5088706;28;19970;-68
2022/02/23 05:32:08;;;;;;;;;;;22.30;32.50;;;;;;5089300;28;19974;-68
2022/02/23 05:34:34;;;;;;;;;;;22.30;32.50;;;;;;5090332;28;19936;-68
2022/02/23 05:37:02;;;;;;;;;;;22.30;32.50;;;;;;5089090;28;19924;-68
2022/02/23 05:39:29;;;;;;;;;;;22.30;32.50;;;;;;5090709;28;19971;-68
2022/02/23 05:41:57;;;;;;;;;;;22.30;32.50;;;;;;5088471;28;19955;-68
2022/02/23 05:47:28;;;;;;;;;;;22.20;32.50;;;;;;5082635;28;20339;-68
2022/02/23 05:49:55;;;;;;;;;;;22.30;32.50;;;;;;5073808;28;20004;-68
2022/02/23 05:52:22;;;;;;;;;;;22.30;32.50;;;;;;5086644;28;19961;-68
2022/02/23 05:54:49;;;;;;;;;;;22.30;32.90;;;;;;5090205;28;20024;-68
2022/02/23 05:57:16;;;;;;;;;;;22.30;32.50;;;;;;5082617;28;20072;-68
2022/02/23 05:59:47;;;;;;;;;;;22.20;32.50;;;;;;5089696;28;19924;-68
2022/02/23 06:02:14;;;;;;;;;;;22.20;32.40;;;;;;5088284;28;19924;-68
2022/02/23 06:04:41;;;;;;;;;;;22.30;32.50;;;;;;5089601;28;20003;-68
2022/02/23 06:07:09;;;;;;;;;;;22.30;32.50;;;;;;5088295;28;19978;-68
2022/02/23 06:09:36;;;;;;;;;;;22.30;32.50;;;;;;5088206;28;19959;-67
2022/02/23 06:12:04;;;;;;;;;;;22.30;32.20;;;;;;5090755;28;20442;-68
2022/02/23 06:14:31;;;;;;;;;;;22.30;32.00;;;;;;5090769;28;20067;-69
2022/02/23 06:16:58;;;;;;;;;;;22.30;32.00;;;;;;5087887;28;19928;-70
2022/02/23 06:23:02;;;;;;;;;;;22.30;31.70;;;;;;5087710;28;19962;-68
2022/02/23 06:25:29;;;;;;;;;;;22.30;31.40;;;;;;5086706;28;19924;-69
2022/02/23 06:27:58;;;;;;;;;;;22.40;31.50;;;;;;5085569;28;19924;-70
2022/02/23 06:30:25;;;;;;;;;;;22.40;31.30;;;;;;5090049;28;19924;-71
2022/02/23 06:32:52;;;;;;;;;;;22.40;31.10;;;;;;5086220;28;19932;-71
2022/02/23 06:35:22;;;;;;;;;;;22.50;31.10;;;;;;5087348;28;19931;-71
2022/02/23 06:37:49;;;;;;;;;;;22.60;31.00;;;;;;5083394;28;20013;-69
2022/02/23 06:40:16;;;;;;;;;;;22.60;30.90;;;;;;5085980;28;19959;-75
2022/02/23 06:42:43;;;;;;;;;;;22.70;31.10;;;;;;5088098;28;20022;-74
2022/02/23 06:55:25;;;;;;;;;;;22.80;30.90;;;;;;5089601;28;19919;-68
2022/02/23 06:57:52;;;;;;;;;;;22.90;30.80;;;;;;5086894;28;19963;-69
2022/02/23 07:00:19;;;;;;;;;;;23.00;30.80;;;;;;5086941;28;20419;-68
2022/02/23 07:02:46;;;;;;;;;;;23.00;30.50;;;;;;5086917;28;20285;-67
2022/02/23 07:05:15;;;;;;;;;;;23.10;30.50;;;;;;5088692;28;19979;-65
2022/02/23 07:07:42;;;;;;;;;;;23.20;30.50;;;;;;5087654;28;19926;-66
2022/02/23 07:10:19;;;;;;;;;;;23.20;30.20;;;;;;5103072;28;19927;-64
2022/02/23 07:12:46;;;;;;;;;;;23.30;30.20;;;;;;5110115;28;19930;-65
2022/02/23 07:15:13;;;;;;;;;;;23.40;30.10;;;;;;5106090;28;19936;-69
2022/02/23 07:17:41;;;;;;;;;;;23.50;30.00;;;;;;5100734;28;19965;-67
2022/02/23 07:20:08;;;;;;;;;;;23.60;30.20;;;;;;5063450;28;20026;-70
2022/02/23 07:22:36;;;;;;;;;;;23.60;30.20;;;;;;5078812;28;20018;-67
2022/02/23 07:25:04;;;;;;;;;;;23.60;30.20;;;;;;5065651;28;20019;-70
2022/02/23 07:27:32;;;;;;;;;;;23.70;30.20;;;;;;5067458;28;20018;-66
2022/02/23 07:29:59;;;;;;;;;;;23.70;30.10;;;;;;5097308;28;19967;-68
2022/02/23 07:32:31;;;;;;;;;;;23.80;30.10;;;;;;5084638;28;20300;-69
2022/02/23 07:34:58;;;;;;;;;;;23.80;30.10;;;;;;5083531;28;19924;-72
2022/02/23 07:37:25;;;;;;;;;;;23.80;30.20;;;;;;5088327;28;19978;-68
2022/02/23 07:40:28;;;;;;;;;;;23.80;30.30;;;;;;5088162;28;20320;-70
2022/02/23 07:43:15;;;;;;;;;;;23.90;30.30;;;;;;5075691;28;19924;-66
2022/02/23 07:45:42;;;;;;;;;;;23.90;30.40;;;;;;5088664;28;19924;-68
2022/02/23 07:48:09;;;;;;;;;;;23.90;30.30;;;;;;5064883;28;19932;-66
2022/02/23 07:54:12;;;;;;;;;;;23.90;30.40;;;;;;5089320;28;19919;-66
2022/02/23 07:56:39;;;;;;;;;;;23.90;30.30;;;;;;5080325;28;20015;-68
2022/02/23 07:59:06;;;;;;;;;;;23.90;30.30;;;;;;5084064;28;19928;-69
2022/02/23 08:01:34;;;;;;;;;;;24.00;30.20;;;;;;5074391;28;19931;-68
2022/02/23 08:04:02;;;;;;;;;;;24.00;30.10;;;;;;5082664;28;19924;-69
2022/02/23 08:06:31;;;;;;;;;;;24.00;30.10;;;;;;5091903;28;19928;-67
2022/02/23 08:08:59;;;;;;;;;;;24.10;30.10;;;;;;5083255;28;19924;-73
2022/02/23 08:11:29;;;;;;;;;;;24.10;30.10;;;;;;5093086;28;20514;-69
2022/02/23 08:13:58;;;;;;;;;;;24.10;30.00;;;;;;5092018;28;19924;-72
2022/02/23 08:19:31;;;;;;;;;;;24.20;30.50;;;;;;5085575;28;19955;-65
2022/02/23 08:22:05;;;;;;;;;;;24.20;30.00;;;;;;5091538;28;20296;-67
2022/02/23 08:24:34;;;;;;;;;;;24.30;30.00;;;;;;5091199;28;20139;-66
2022/02/23 08:27:02;;;;;;;;;;;24.30;29.90;;;;;;5092897;28;20061;-66
2022/02/23 08:29:29;;;;;;;;;;;24.30;29.90;;;;;;5078880;28;19987;-65
2022/02/23 08:31:57;;;;;;;;;;;24.30;29.80;;;;;;5072468;28;19928;-67
2022/02/23 08:34:24;;;;;;;;;;;24.30;29.80;;;;;;5071643;28;19928;-66
2022/02/23 08:36:53;;;;;;;;;;;24.30;29.80;;;;;;5072450;28;19971;-69
2022/02/23 08:39:21;;;;;;;;;;;24.40;29.90;;;;;;5081682;28;19924;-68
2022/02/23 08:41:48;;;;;;;;;;;24.40;29.80;;;;;;5091129;28;19924;-63
2022/02/23 08:44:19;;;;;;;;;;;24.40;29.80;;;;;;5090981;28;19924;-63
2022/02/23 08:46:47;;;;;;;;;;;24.50;29.80;;;;;;5091489;28;20403;-63
2022/02/23 08:49:15;;;;;;;;;;;24.50;29.70;;;;;;5092184;28;20373;-63
2022/02/23 08:51:44;;;;;;;;;;;24.50;29.60;;;;;;5092179;28;19924;-63
2022/02/23 08:54:11;;;;;;;;;;;24.50;29.60;;;;;;5091569;28;20003;-62
2022/02/23 08:56:38;;;;;;;;;;;24.50;29.50;;;;;;5074313;28;19959;-63
2022/02/23 08:59:05;;;;;;;;;;;24.50;29.50;;;;;;5092150;28;20365;-63
2022/02/23 09:01:33;;;;;;;;;;;24.50;29.40;;;;;;5089028;28;19969;-64
2022/02/23 09:04:03;;;;;;;;;;;24.50;29.30;;;;;;5083769;28;19924;-63
2022/02/23 09:06:34;;;;;;;;;;;24.50;29.30;;;;;;5089048;28;19924;-63
2022/02/23 09:09:02;;;;;;;;;;;24.60;29.30;;;;;;5091466;28;19924;-62
2022/02/23 09:11:29;;;;;;;;;;;24.60;29.20;;;;;;5090956;28;20424;-61
2022/02/23 09:13:56;;;;;;;;;;;24.60;29.20;;;;;;5087639;28;19924;-62
2022/02/23 09:16:28;;;;;;;;;;;24.60;29.10;;;;;;5091139;28;20019;-62
2022/02/23 09:18:55;;;;;;;;;;;24.60;29.20;;;;;;5106441;28;20334;-61
2022/02/23 09:21:22;;;;;;;;;;;24.60;29.10;;;;;;5092003;28;20425;-62
2022/02/23 09:23:49;;;;;;;;;;;24.60;29.10;;;;;;5089513;28;19924;-62
2022/02/23 09:26:18;;;;;;;;;;;24.50;29.10;;;;;;5090960;28;19924;-62
2022/02/23 09:28:45;;;;;;;;;;;24.50;29.10;;;;;;5090908;28;20385;-64
2022/02/23 09:31:13;;;;;;;;;;;24.50;29.10;;;;;;5091173;28;20011;-63
2022/02/23 09:33:41;;;;;;;;;;;24.50;29.10;;;;;;5069556;28;19935;-62
2022/02/23 09:36:13;;;;;;;;;;;24.50;29.10;;;;;;5090471;28;20019;-63
2022/02/23 09:38:41;;;;;;;;;;;24.50;29.10;;;;;;5091320;28;20535;-63
2022/02/23 09:41:09;;;;;;;;;;;24.50;29.20;;;;;;5091263;28;20003;-63
2022/02/23 09:43:37;;;;;;;;;;;24.50;29.10;;;;;;5088582;28;20425;-65
2022/02/23 09:46:06;;;;;;;;;;;24.50;29.00;;;;;;5067086;28;19924;-63
2022/02/23 09:48:33;;;;;;;;;;;24.50;29.00;;;;;;5068572;28;19924;-63
2022/02/23 09:51:01;;;;;;;;;;;24.50;29.00;;;;;;5069841;28;19924;-64
2022/02/23 09:53:28;;;;;;;;;;;24.50;29.00;;;;;;5070268;28;19924;-62
2022/02/23 09:55:57;;;;;;;;;;;24.50;29.00;;;;;;5077851;28;19963;-63
2022/02/23 09:58:24;;;;;;;;;;;24.50;29.00;;;;;;5085590;28;20015;-63
2022/02/23 10:00:51;;;;;;;;;;;24.60;29.00;;;;;;5073306;28;20393;-64
2022/02/23 10:03:18;;;;;;;;;;;24.50;28.90;;;;;;5079061;28;19954;-63
2022/02/23 10:09:09;;;;;;;;;;;24.50;28.90;;;;;;5085622;28;20242;-64
2022/02/23 10:11:36;;;;;;;;;;;24.50;28.80;;;;;;5090468;28;19939;-64
2022/02/23 10:14:04;;;;;;;;;;;24.50;28.80;;;;;;5071987;28;20331;-62
2022/02/23 10:16:35;;;;;;;;;;;24.50;28.80;;;;;;5088959;28;19928;-64
2022/02/23 10:19:10;;;;;;;;;;;24.50;28.80;;;;;;5089134;28;19924;-63
2022/02/23 10:21:47;;;;;;;;;;;24.50;28.80;;;;;;5089887;28;19924;-64
2022/02/23 10:24:19;;;;;;;;;;;24.50;28.80;;;;;;5090049;28;19986;-63
2022/02/23 10:26:57;;;;;;;;;;;24.50;28.80;;;;;;5090058;28;19951;-63
2022/02/23 10:29:25;;;;;;;;;;;24.50;28.90;;;;;;5089821;28;19932;-62
2022/02/23 10:31:52;;;;;;;;;;;24.50;28.90;;;;;;5085388;28;19960;-63
2022/02/23 10:34:20;;;;;;;;;;;24.50;28.80;;;;;;5084706;28;20643;-65
2022/02/23 10:36:57;;;;;;;;;;;24.40;28.80;;;;;;5090927;28;20009;-65
2022/02/23 10:42:47;;;;;;;;;;;24.40;28.90;;;;;;5080865;28;20422;-68
2022/02/23 10:45:17;;;;;;;;;;;24.40;28.80;;;;;;5086611;28;20365;-66
2022/02/23 10:47:46;;;;;;;;;;;24.40;28.80;;;;;;5089202;28;20002;-65
2022/02/23 10:50:15;;;;;;;;;;;24.40;28.90;;;;;;5090234;28;19924;-67
2022/02/23 10:52:43;;;;;;;;;;;24.40;28.90;;;;;;5084316;28;20401;-67
2022/02/23 10:55:13;;;;;;;;;;;24.40;29.00;;;;;;5083863;28;19954;-68
2022/02/23 10:57:44;;;;;;;;;;;24.40;29.00;;;;;;5088937;28;19946;-67
2022/02/23 11:00:14;;;;;;;;;;;24.40;29.00;;;;;;5090096;28;19924;-68
2022/02/23 11:02:41;;;;;;;;;;;24.50;29.00;;;;;;5084401;28;19935;-65
2022/02/23 11:05:08;;;;;;;;;;;24.50;29.00;;;;;;5088280;28;20472;-65
2022/02/23 11:07:35;;;;;;;;;;;24.50;29.00;;;;;;5090345;28;19935;-68
2022/02/23 11:10:03;;;;;;;;;;;24.50;29.50;;;;;;5089794;28;19924;-69
2022/02/23 11:12:31;;;;;;;;;;;24.50;28.90;;;;;;5085274;28;20018;-68
2022/02/23 11:14:58;;;;;;;;;;;24.50;28.80;;;;;;5087410;28;19991;-69
2022/02/23 11:17:25;;;;;;;;;;;24.50;28.70;;;;;;5089483;28;20384;-69
2022/02/23 11:19:53;;;;;;;;;;;24.50;28.70;;;;;;5090265;28;19970;-69
2022/02/23 11:22:21;;;;;;;;;;;24.50;28.70;;;;;;5088522;28;19924;-67
2022/02/23 11:24:48;;;;;;;;;;;24.50;28.50;;;;;;5087883;28;19924;-67
2022/02/23 11:27:18;;;;;;;;;;;24.50;28.50;;;;;;5088797;28;19924;-67
2022/02/23 11:30:00;;;;;;;;;;;24.50;28.50;;;;;;5072348;28;20361;-68
2022/02/23 11:32:30;;;;;;;;;;;24.50;28.40;;;;;;5086633;28;20026;-73
2022/02/23 11:34:57;;;;;;;;;;;24.50;28.40;;;;;;5083879;28;19978;-73
2022/02/23 11:37:29;;;;;;;;;;;24.50;28.40;;;;;;5090131;28;19928;-71
2022/02/23 11:39:56;;;;;;;;;;;24.50;28.40;;;;;;5090484;28;19979;-71
2022/02/23 11:42:24;;;;;;;;;;;24.50;28.30;;;;;;5087858;28;19959;-76
2022/02/23 11:45:09;;;;;;;;;;;24.50;28.30;;;;;;5087431;28;19928;-76
2022/02/23 11:47:52;;;;;;;;;;;24.50;28.40;;;;;;5089463;28;20019;-74
2022/02/23 11:50:20;;;;;;;;;;;24.50;28.30;;;;;;5088859;28;19975;-72
2022/02/23 11:52:47;;;;;;;;;;;24.50;28.30;;;;;;5086573;28;19924;-66
2022/02/23 11:55:25;;;;;;;;;;;24.50;28.30;;;;;;5053040;28;20455;-74
2022/02/23 11:57:53;;;;;;;;;;;24.50;28.30;;;;;;5069391;28;19970;-71
2022/02/23 12:00:40;;;;;;;;;;;24.50;28.60;;;;;;5069250;28;19928;-69
2022/02/23 12:03:09;;;;;;;;;;;24.60;28.60;;;;;;5069281;28;19963;-69
2022/02/23 12:05:41;;;;;;;;;;;24.60;28.70;;;;;;5088930;28;19924;-65
2022/02/23 12:08:28;;;;;;;;;;;24.70;28.90;;;;;;5089521;28;20053;-68
2022/02/23 12:10:55;;;;;;;;;;;24.70;28.90;;;;;;5086193;28;20453;-67
2022/02/23 12:13:37;;;;;;;;;;;24.70;29.10;;;;;;5068978;28;20642;-65
2022/02/23 12:16:24;;;;;;;;;;;24.80;29.10;;;;;;5067586;28;20335;-63
2022/02/23 12:18:53;;;;;;;;;;;24.80;29.30;;;;;;5068409;28;19994;-63
2022/02/23 12:21:20;;;;;;;;;;;24.80;29.30;;;;;;5069827;28;19924;-63
2022/02/23 12:23:47;;;;;;;;;;;24.80;29.30;;;;;;5055749;28;19978;-63
2022/02/23 12:26:15;;;;;;;;;;;24.80;29.20;;;;;;5089202;28;19963;-63
2022/02/23 12:28:47;;;;;;;;;;;24.80;29.10;;;;;;5087172;28;19928;-62
2022/02/23 12:31:22;;;;;;;;;;;24.80;29.00;;;;;;5087067;28;19924;-70
2022/02/23 12:33:55;;;;;;;;;;;24.80;28.90;;;;;;5085705;28;19969;-59
2022/02/23 12:36:48;;;;;;;;;;;24.80;28.90;;;;;;5088701;28;19931;-61
2022/02/23 12:39:17;;;;;;;;;;;24.80;28.90;;;;;;5074199;28;20373;-62
2022/02/23 12:41:46;;;;;;;;;;;24.90;29.10;;;;;;5091846;28;20002;-61
2022/02/23 12:44:14;;;;;;;;;;;24.90;29.00;;;;;;5090635;28;19924;-60
2022/02/23 12:46:46;;;;;;;;;;;24.90;29.00;;;;;;5091422;28;19924;-60
2022/02/23 12:49:14;;;;;;;;;;;24.90;28.90;;;;;;5092093;28;19947;-60
2022/02/23 12:51:43;;;;;;;;;;;25.00;29.00;;;;;;5091817;28;20003;-61
2022/02/23 12:54:16;;;;;;;;;;;25.00;29.00;;;;;;5089987;28;20018;-61
2022/02/23 12:56:45;;;;;;;;;;;25.00;29.00;;;;;;5091831;28;19924;-59
2022/02/23 12:59:13;;;;;;;;;;;25.00;28.80;;;;;;5092139;28;19971;-61
2022/02/23 13:01:45;;;;;;;;;;;25.00;28.70;;;;;;5092971;28;19924;-61
2022/02/23 13:04:13;;;;;;;;;;;25.00;28.70;;;;;;5091462;28;20011;-64
2022/02/23 13:06:42;;;;;;;;;;;25.00;28.60;;;;;;5077767;28;19977;-61
2022/02/23 13:09:10;;;;;;;;;;;25.00;28.50;;;;;;5084732;28;20010;-62
2022/02/23 13:11:39;;;;;;;;;;;25.10;28.40;;;;;;5069102;28;20613;-61
2022/02/23 13:14:08;;;;;;;;;;;25.00;28.30;;;;;;5084821;28;19924;-62
2022/02/23 13:16:36;;;;;;;;;;;25.00;28.30;;;;;;5081623;28;19954;-60
2022/02/23 13:19:04;;;;;;;;;;;25.00;27.60;;;;;;5079294;28;20008;-60
2022/02/23 13:21:40;;;;;;;;;;;24.90;27.30;;;;;;5087386;28;19928;-59
2022/02/23 13:24:08;;;;;;;;;;;24.90;27.50;;;;;;5096140;28;20371;-60
2022/02/23 13:26:36;;;;;;;;;;;24.90;27.70;;;;;;5080086;28;19932;-61
2022/02/23 13:29:12;;;;;;;;;;;24.90;27.90;;;;;;5083084;28;20028;-62
2022/02/23 13:31:43;;;;;;;;;;;24.90;28.10;;;;;;5090082;28;19931;-62
2022/02/23 13:34:25;;;;;;;;;;;24.90;28.30;;;;;;5085500;28;19970;-65
2022/02/23 13:36:57;;;;;;;;;;;24.90;28.40;;;;;;5084176;28;19955;-62
2022/02/23 13:39:40;;;;;;;;;;;24.90;28.50;;;;;;5083966;28;19966;-64
2022/02/23 13:42:09;;;;;;;;;;;24.90;28.50;;;;;;5090499;28;20366;-62
2022/02/23 13:44:37;;;;;;;;;;;24.90;28.60;;;;;;5101685;28;20391;-63
2022/02/23 13:47:06;;;;;;;;;;;24.90;28.70;;;;;;5085117;28;19928;-65
2022/02/23 13:49:34;;;;;;;;;;;24.90;28.90;;;;;;5076259;28;19938;-68
2022/02/23 13:52:05;;;;;;;;;;;24.90;29.00;;;;;;5070693;28;19982;-61
2022/02/23 13:54:32;;;;;;;;;;;24.90;29.00;;;;;;5080044;28;19973;-63
2022/02/23 13:56:59;;;;;;;;;;;24.90;29.20;;;;;;5084116;28;19954;-66
2022/02/23 13:59:46;;;;;;;;;;;24.90;29.50;;;;;;5087157;28;19979;-62
2022/02/23 14:02:13;;;;;;;;;;;25.00;29.50;;;;;;5091284;28;20016;-63
2022/02/23 14:04:41;;;;;;;;;;;25.00;29.50;;;;;;5091072;28;19978;-62
2022/02/23 14:07:17;;;;;;;;;;;25.00;29.50;;;;;;5085385;28;19932;-63
2022/02/23 14:09:44;;;;;;;;;;;25.00;29.30;;;;;;5088069;28;19924;-61
2022/02/23 14:12:11;;;;;;;;;;;25.00;29.30;;;;;;5072849;28;20015;-62
2022/02/23 14:14:41;;;;;;;;;;;25.00;29.20;;;;;;5086853;28;19985;-62
2022/02/23 14:17:18;;;;;;;;;;;25.00;29.20;;;;;;5084257;28;19974;-62
2022/02/23 14:19:46;;;;;;;;;;;25.00;29.10;;;;;;5087854;28;20013;-64
2022/02/23 14:22:19;;;;;;;;;;;25.00;28.90;;;;;;5089988;28;19924;-66
2022/02/23 14:25:00;;;;;;;;;;;25.00;28.90;;;;;;5086841;28;20011;-66
2022/02/23 14:27:29;;;;;;;;;;;25.00;28.80;;;;;;5083381;28;20018;-62
2022/02/23 14:30:18;;;;;;;;;;;25.00;28.80;;;;;;5087964;28;19993;-66
2022/02/23 14:32:45;;;;;;;;;;;25.00;28.60;;;;;;5091298;28;19927;-67
2022/02/23 14:35:15;;;;;;;;;;;25.00;28.60;;;;;;5088763;28;20286;-66
2022/02/23 14:37:46;;;;;;;;;;;25.00;28.60;;;;;;5081492;28;19932;-67
2022/02/23 14:40:16;;;;;;;;;;;25.00;28.70;;;;;;5102806;28;20480;-66
2022/02/23 14:42:43;;;;;;;;;;;25.00;28.60;;;;;;5087277;28;19932;-69
2022/02/23 14:45:10;;;;;;;;;;;25.00;28.50;;;;;;5083724;28;19962;-66
2022/02/23 14:47:38;;;;;;;;;;;25.00;28.50;;;;;;5082401;28;20400;-69
2022/02/23 14:50:10;;;;;;;;;;;25.00;28.40;;;;;;5087418;28;19930;-66
2022/02/23 14:52:39;;;;;;;;;;;25.00;28.40;;;;;;5090343;28;20426;-68
2022/02/23 14:55:07;;;;;;;;;;;24.90;28.40;;;;;;5090152;28;19971;-66
2022/02/23 14:57:35;;;;;;;;;;;24.90;28.40;;;;;;5083060;28;20011;-64
2022/02/23 15:00:05;;;;;;;;;;;24.90;28.40;;;;;;5089124;28;19963;-65
2022/02/23 15:02:32;;;;;;;;;;;24.90;28.50;;;;;;5088951;28;19964;-66
2022/02/23 15:04:59;;;;;;;;;;;24.90;28.50;;;;;;5072303;28;20297;-66
2022/02/23 15:07:27;;;;;;;;;;;24.90;28.40;;;;;;5081160;28;19947;-65
2022/02/23 15:09:54;;;;;;;;;;;25.00;28.40;;;;;;5085079;28;19977;-66
2022/02/23 15:12:21;;;;;;;;;;;25.00;28.40;;;;;;5090020;28;19946;-64
2022/02/23 15:14:48;;;;;;;;;;;25.00;28.30;;;;;;5086217;28;19977;-66
2022/02/23 15:17:16;;;;;;;;;;;25.10;28.40;;;;;;5084590;28;20314;-66